sensor_id;sensor_type;location;lat;lon;timestamp;pressure;altitude;pressure_sealevel;temperature;humidity
62725;BME280;49026;52.600;4.694;2023-07-09T00:00:23;101659.59;;;20.10;57.80
62725;BME280;49026;52.600;4.694;2023-07-09T00:02:49;101659.81;;;20.07;57.94
62725;BME280;49026;52.600;4.694;2023-07-09T00:05:19;101658.28;;;20.03;58.07
62725;BME280;49026;52.600;4.694;2023-07-09T00:07:45;101665.66;;;19.99;57.91
62725;BME280;49026;52.600;4.694;2023-07-09T00:10:15;101659.66;;;19.95;58.26
62725;BME280;49026;52.600;4.694;2023-07-09T00:12:41;101664.25;;;19.93;58.00
62725;BME280;49026;52.600;4.694;2023-07-09T00:15:08;101669.78;;;19.90;58.14
62725;BME280;49026;52.600;4.694;2023-07-09T00:17:35;101666.38;;;19.88;58.09
62725;BME280;49026;52.600;4.694;2023-07-09T00:20:03;101678.09;;;19.86;58.44
62725;BME280;49026;52.600;4.694;2023-07-09T00:22:30;101680.75;;;19.86;58.04
62725;BME280;49026;52.600;4.694;2023-07-09T00:24:55;101686.09;;;19.86;58.32
62725;BME280;49026;52.600;4.694;2023-07-09T00:27:25;101691.53;;;19.84;58.61
62725;BME280;49026;52.600;4.694;2023-07-09T00:29:52;101688.94;;;19.83;58.56
62725;BME280;49026;52.600;4.694;2023-07-09T00:32:20;101690.03;;;19.80;58.76
62725;BME280;49026;52.600;4.694;2023-07-09T00:34:52;101690.13;;;19.78;58.85
62725;BME280;49026;52.600;4.694;2023-07-09T00:37:23;101688.31;;;19.79;59.18
62725;BME280;49026;52.600;4.694;2023-07-09T00:39:51;101693.72;;;19.77;59.00
62725;BME280;49026;52.600;4.694;2023-07-09T00:42:19;101690.38;;;19.74;59.42
62725;BME280;49026;52.600;4.694;2023-07-09T00:44:46;101687.91;;;19.71;59.53
62725;BME280;49026;52.600;4.694;2023-07-09T00:49:47;101701.66;;;19.65;59.65
62725;BME280;49026;52.600;4.694;2023-07-09T00:52:22;101699.94;;;19.63;60.01
62725;BME280;49026;52.600;4.694;2023-07-09T00:54:50;101700.88;;;19.62;59.67
62725;BME280;49026;52.600;4.694;2023-07-09T00:57:21;101705.28;;;19.63;60.02
62725;BME280;49026;52.600;4.694;2023-07-09T00:59:53;101705.09;;;19.67;60.15
62725;BME280;49026;52.600;4.694;2023-07-09T01:02:20;101694.97;;;19.72;59.77
62725;BME280;49026;52.600;4.694;2023-07-09T01:04:51;101695.56;;;19.77;59.96
62725;BME280;49026;52.600;4.694;2023-07-09T01:07:18;101697.81;;;19.83;59.78
62725;BME280;49026;52.600;4.694;2023-07-09T01:09:45;101701.16;;;19.87;59.57
62725;BME280;49026;52.600;4.694;2023-07-09T01:12:10;101698.38;;;19.88;59.75
62725;BME280;49026;52.600;4.694;2023-07-09T01:14:38;101693.78;;;19.90;59.97
62725;BME280;49026;52.600;4.694;2023-07-09T01:17:06;101692.84;;;19.91;60.21
62725;BME280;49026;52.600;4.694;2023-07-09T01:19:43;101687.50;;;19.91;60.23
62725;BME280;49026;52.600;4.694;2023-07-09T01:22:17;101685.78;;;19.90;59.96
62725;BME280;49026;52.600;4.694;2023-07-09T01:24:53;101680.47;;;19.90;60.10
62725;BME280;49026;52.600;4.694;2023-07-09T01:27:23;101683.03;;;19.92;60.06
62725;BME280;49026;52.600;4.694;2023-07-09T01:29:49;101693.69;;;19.92;59.92
62725;BME280;49026;52.600;4.694;2023-07-09T01:32:16;101691.13;;;19.90;60.01
62725;BME280;49026;52.600;4.694;2023-07-09T01:34:46;101689.41;;;19.89;59.97
62725;BME280;49026;52.600;4.694;2023-07-09T01:37:16;101686.00;;;19.87;60.33
62725;BME280;49026;52.600;4.694;2023-07-09T01:39:41;101691.53;;;19.84;60.19
62725;BME280;49026;52.600;4.694;2023-07-09T01:42:07;101696.00;;;19.84;60.32
62725;BME280;49026;52.600;4.694;2023-07-09T01:44:34;101690.97;;;19.79;60.48
62725;BME280;49026;52.600;4.694;2023-07-09T01:47:01;101702.81;;;19.75;60.46
62725;BME280;49026;52.600;4.694;2023-07-09T01:49:29;101702.13;;;19.71;60.59
62725;BME280;49026;52.600;4.694;2023-07-09T01:51:55;101706.78;;;19.68;60.49
62725;BME280;49026;52.600;4.694;2023-07-09T01:54:22;101702.72;;;19.62;60.75
62725;BME280;49026;52.600;4.694;2023-07-09T01:56:51;101699.47;;;19.57;60.85
62725;BME280;49026;52.600;4.694;2023-07-09T01:59:16;101700.53;;;19.54;60.82
62725;BME280;49026;52.600;4.694;2023-07-09T02:01:44;101703.50;;;19.50;61.12
62725;BME280;49026;52.600;4.694;2023-07-09T02:04:09;101705.72;;;19.43;60.90
62725;BME280;49026;52.600;4.694;2023-07-09T02:06:34;101699.59;;;19.41;60.90
62725;BME280;49026;52.600;4.694;2023-07-09T02:09:00;101696.28;;;19.37;61.13
62725;BME280;49026;52.600;4.694;2023-07-09T02:11:27;101700.09;;;19.33;61.33
62725;BME280;49026;52.600;4.694;2023-07-09T02:13:52;101701.25;;;19.29;61.13
62725;BME280;49026;52.600;4.694;2023-07-09T02:16:18;101698.75;;;19.26;61.22
62725;BME280;49026;52.600;4.694;2023-07-09T02:18:46;101691.00;;;19.23;61.13
62725;BME280;49026;52.600;4.694;2023-07-09T02:21:13;101697.34;;;19.20;61.54
62725;BME280;49026;52.600;4.694;2023-07-09T02:23:39;101708.94;;;19.19;61.28
62725;BME280;49026;52.600;4.694;2023-07-09T02:26:04;101704.59;;;19.18;61.31
62725;BME280;49026;52.600;4.694;2023-07-09T02:28:31;101705.72;;;19.14;61.77
62725;BME280;49026;52.600;4.694;2023-07-09T02:30:59;101709.44;;;19.12;61.70
62725;BME280;49026;52.600;4.694;2023-07-09T02:33:24;101704.13;;;19.12;61.76
62725;BME280;49026;52.600;4.694;2023-07-09T02:35:50;101696.97;;;19.12;61.85
62725;BME280;49026;52.600;4.694;2023-07-09T02:38:15;101692.63;;;19.11;61.93
62725;BME280;49026;52.600;4.694;2023-07-09T02:40:43;101697.94;;;19.11;62.20
62725;BME280;49026;52.600;4.694;2023-07-09T02:43:10;101700.72;;;19.10;62.28
62725;BME280;49026;52.600;4.694;2023-07-09T02:45:36;101705.16;;;19.09;62.22
62725;BME280;49026;52.600;4.694;2023-07-09T02:48:03;101706.03;;;19.10;62.22
62725;BME280;49026;52.600;4.694;2023-07-09T02:50:28;101704.31;;;19.09;61.91
62725;BME280;49026;52.600;4.694;2023-07-09T02:52:54;101705.16;;;19.09;62.24
62725;BME280;49026;52.600;4.694;2023-07-09T02:55:19;101699.81;;;19.09;62.24
62725;BME280;49026;52.600;4.694;2023-07-09T02:57:44;101693.56;;;19.10;62.21
62725;BME280;49026;52.600;4.694;2023-07-09T03:00:10;101696.22;;;19.10;62.38
62725;BME280;49026;52.600;4.694;2023-07-09T03:02:38;101705.16;;;19.09;62.74
62725;BME280;49026;52.600;4.694;2023-07-09T03:05:04;101709.81;;;19.05;62.75
62725;BME280;49026;52.600;4.694;2023-07-09T03:07:29;101698.31;;;19.05;62.88
62725;BME280;49026;52.600;4.694;2023-07-09T03:09:57;101709.81;;;19.05;62.92
62725;BME280;49026;52.600;4.694;2023-07-09T03:12:22;101702.69;;;19.06;62.85
62725;BME280;49026;52.600;4.694;2023-07-09T03:14:48;101712.41;;;19.07;63.31
62725;BME280;49026;52.600;4.694;2023-07-09T03:17:16;101716.00;;;19.06;63.13
62725;BME280;49026;52.600;4.694;2023-07-09T03:19:41;101716.97;;;19.05;63.14
62725;BME280;49026;52.600;4.694;2023-07-09T03:22:07;101723.22;;;19.04;63.17
62725;BME280;49026;52.600;4.694;2023-07-09T03:24:34;101720.75;;;19.01;63.52
62725;BME280;49026;52.600;4.694;2023-07-09T03:27:02;101727.06;;;19.00;63.73
62725;BME280;49026;52.600;4.694;2023-07-09T03:29:30;101731.50;;;18.99;63.42
62725;BME280;49026;52.600;4.694;2023-07-09T03:31:55;101729.06;;;18.96;63.52
62725;BME280;49026;52.600;4.694;2023-07-09T03:34:21;101735.31;;;18.95;63.58
62725;BME280;49026;52.600;4.694;2023-07-09T03:36:47;101733.81;;;18.91;63.57
62725;BME280;49026;52.600;4.694;2023-07-09T03:39:12;101738.44;;;18.87;63.60
62725;BME280;49026;52.600;4.694;2023-07-09T03:41:37;101739.31;;;18.88;63.62
62725;BME280;49026;52.600;4.694;2023-07-09T03:44:12;101734.16;;;18.85;63.92
62725;BME280;49026;52.600;4.694;2023-07-09T03:46:38;101732.50;;;18.82;63.84
62725;BME280;49026;52.600;4.694;2023-07-09T03:49:03;101734.41;;;18.80;63.69
62725;BME280;49026;52.600;4.694;2023-07-09T03:51:31;101731.00;;;18.78;64.04
62725;BME280;49026;52.600;4.694;2023-07-09T03:53:56;101740.69;;;18.79;63.90
62725;BME280;49026;52.600;4.694;2023-07-09T03:56:22;101752.22;;;18.80;64.00
62725;BME280;49026;52.600;4.694;2023-07-09T03:58:47;101760.28;;;18.78;64.39
62725;BME280;49026;52.600;4.694;2023-07-09T04:01:12;101765.69;;;18.77;64.71
62725;BME280;49026;52.600;4.694;2023-07-09T04:03:38;101757.44;;;18.81;64.31
62725;BME280;49026;52.600;4.694;2023-07-09T04:06:05;101766.03;;;18.86;64.73
62725;BME280;49026;52.600;4.694;2023-07-09T04:08:30;101765.63;;;18.93;64.64
62725;BME280;49026;52.600;4.694;2023-07-09T04:11:00;101767.09;;;18.98;64.87
62725;BME280;49026;52.600;4.694;2023-07-09T04:13:26;101763.09;;;19.05;64.48
62725;BME280;49026;52.600;4.694;2023-07-09T04:15:53;101767.97;;;19.13;64.55
62725;BME280;49026;52.600;4.694;2023-07-09T04:18:18;101778.13;;;19.21;64.45
62725;BME280;49026;52.600;4.694;2023-07-09T04:20:48;101772.34;;;19.29;65.02
62725;BME280;49026;52.600;4.694;2023-07-09T04:23:17;101764.81;;;19.35;64.44
62725;BME280;49026;52.600;4.694;2023-07-09T04:25:43;101760.06;;;19.40;64.25
62725;BME280;49026;52.600;4.694;2023-07-09T04:28:08;101760.53;;;19.47;64.29
62725;BME280;49026;52.600;4.694;2023-07-09T04:30:36;101766.22;;;19.55;64.53
62725;BME280;49026;52.600;4.694;2023-07-09T04:33:08;101765.84;;;19.61;64.79
62725;BME280;49026;52.600;4.694;2023-07-09T04:35:34;101770.56;;;19.71;64.43
62725;BME280;49026;52.600;4.694;2023-07-09T04:38:00;101766.63;;;19.78;64.52
62725;BME280;49026;52.600;4.694;2023-07-09T04:40:27;101770.38;;;19.88;64.40
62725;BME280;49026;52.600;4.694;2023-07-09T04:42:52;101770.66;;;19.98;64.62
62725;BME280;49026;52.600;4.694;2023-07-09T04:45:18;101773.44;;;20.09;64.62
62725;BME280;49026;52.600;4.694;2023-07-09T04:47:43;101770.84;;;20.22;64.69
62725;BME280;49026;52.600;4.694;2023-07-09T04:50:16;101780.59;;;20.36;64.74
62725;BME280;49026;52.600;4.694;2023-07-09T04:52:41;101779.59;;;20.51;64.83
62725;BME280;49026;52.600;4.694;2023-07-09T04:55:08;101781.34;;;20.65;64.81
62725;BME280;49026;52.600;4.694;2023-07-09T04:57:34;101774.41;;;20.76;64.85
62725;BME280;49026;52.600;4.694;2023-07-09T04:59:59;101783.59;;;20.84;64.87
62725;BME280;49026;52.600;4.694;2023-07-09T05:02:25;101779.66;;;20.90;64.75
62725;BME280;49026;52.600;4.694;2023-07-09T05:04:50;101774.66;;;20.98;64.97
62725;BME280;49026;52.600;4.694;2023-07-09T05:07:18;101774.63;;;21.11;64.52
62725;BME280;49026;52.600;4.694;2023-07-09T05:09:44;101771.75;;;21.27;64.76
62725;BME280;49026;52.600;4.694;2023-07-09T05:12:09;101772.06;;;21.35;64.55
62725;BME280;49026;52.600;4.694;2023-07-09T05:14:37;101775.03;;;21.43;64.64
62725;BME280;49026;52.600;4.694;2023-07-09T05:17:02;101776.34;;;21.51;64.43
62725;BME280;49026;52.600;4.694;2023-07-09T05:19:30;101771.59;;;21.67;64.36
62725;BME280;49026;52.600;4.694;2023-07-09T05:22:00;101776.91;;;22.04;64.66
62725;BME280;49026;52.600;4.694;2023-07-09T05:24:26;101769.69;;;22.42;64.04
62725;BME280;49026;52.600;4.694;2023-07-09T05:26:53;101775.25;;;22.63;63.97
62725;BME280;49026;52.600;4.694;2023-07-09T05:29:19;101772.78;;;22.60;64.08
62725;BME280;49026;52.600;4.694;2023-07-09T05:31:44;101786.63;;;22.53;64.01
62725;BME280;49026;52.600;4.694;2023-07-09T05:34:12;101786.13;;;22.48;63.64
62725;BME280;49026;52.600;4.694;2023-07-09T05:36:38;101771.00;;;22.36;63.91
62725;BME280;49026;52.600;4.694;2023-07-09T05:39:06;101782.28;;;22.28;63.94
62725;BME280;49026;52.600;4.694;2023-07-09T05:41:31;101788.03;;;22.35;63.55
62725;BME280;49026;52.600;4.694;2023-07-09T05:43:57;101793.44;;;22.46;63.87
62725;BME280;49026;52.600;4.694;2023-07-09T05:46:25;101794.94;;;22.50;63.62
62725;BME280;49026;52.600;4.694;2023-07-09T05:48:52;101791.59;;;22.47;63.17
62725;BME280;49026;52.600;4.694;2023-07-09T05:51:18;101795.78;;;22.51;63.32
62725;BME280;49026;52.600;4.694;2023-07-09T05:53:43;101787.13;;;22.47;63.10
62725;BME280;49026;52.600;4.694;2023-07-09T05:56:10;101792.00;;;22.53;63.04
62725;BME280;49026;52.600;4.694;2023-07-09T05:58:36;101796.16;;;22.57;62.62
62725;BME280;49026;52.600;4.694;2023-07-09T06:01:06;101791.69;;;22.69;62.21
62725;BME280;49026;52.600;4.694;2023-07-09T06:03:32;101795.16;;;22.94;61.63
62725;BME280;49026;52.600;4.694;2023-07-09T06:05:58;101794.88;;;23.21;60.42
62725;BME280;49026;52.600;4.694;2023-07-09T06:08:25;101789.38;;;23.34;59.88
62725;BME280;49026;52.600;4.694;2023-07-09T06:10:52;101783.16;;;23.34;59.68
62725;BME280;49026;52.600;4.694;2023-07-09T06:13:18;101791.94;;;23.24;59.15
62725;BME280;49026;52.600;4.694;2023-07-09T06:15:43;101799.25;;;23.22;59.27
62725;BME280;49026;52.600;4.694;2023-07-09T06:18:08;101802.66;;;23.24;59.05
62725;BME280;49026;52.600;4.694;2023-07-09T06:20:36;101804.59;;;23.34;59.02
62725;BME280;49026;52.600;4.694;2023-07-09T06:23:03;101812.16;;;23.40;58.80
62725;BME280;49026;52.600;4.694;2023-07-09T06:25:28;101803.78;;;23.44;58.63
62725;BME280;49026;52.600;4.694;2023-07-09T06:27:57;101799.59;;;23.40;58.28
62725;BME280;49026;52.600;4.694;2023-07-09T06:30:23;101807.06;;;23.37;58.06
62725;BME280;49026;52.600;4.694;2023-07-09T06:32:48;101802.69;;;23.36;57.64
62725;BME280;49026;52.600;4.694;2023-07-09T06:35:16;101812.91;;;23.30;57.63
62725;BME280;49026;52.600;4.694;2023-07-09T06:37:41;101812.03;;;23.30;57.52
62725;BME280;49026;52.600;4.694;2023-07-09T06:40:09;101818.03;;;23.22;57.28
62725;BME280;49026;52.600;4.694;2023-07-09T06:42:35;101817.66;;;23.27;57.74
62725;BME280;49026;52.600;4.694;2023-07-09T06:45:01;101814.38;;;23.35;57.63
62725;BME280;49026;52.600;4.694;2023-07-09T06:47:29;101829.72;;;23.33;57.28
62725;BME280;49026;52.600;4.694;2023-07-09T06:49:57;101832.91;;;23.38;57.11
62725;BME280;49026;52.600;4.694;2023-07-09T06:52:22;101832.91;;;23.38;57.64
62725;BME280;49026;52.600;4.694;2023-07-09T06:54:48;101838.53;;;23.46;57.38
62725;BME280;49026;52.600;4.694;2023-07-09T06:57:14;101836.56;;;23.48;58.02
62725;BME280;49026;52.600;4.694;2023-07-09T06:59:44;101835.72;;;23.47;58.15
62725;BME280;49026;52.600;4.694;2023-07-09T07:02:09;101844.00;;;23.44;58.06
62725;BME280;49026;52.600;4.694;2023-07-09T07:04:34;101852.16;;;23.43;58.49
62725;BME280;49026;52.600;4.694;2023-07-09T07:07:00;101837.53;;;23.47;58.82
62725;BME280;49026;52.600;4.694;2023-07-09T07:09:27;101840.09;;;23.48;58.63
62725;BME280;49026;52.600;4.694;2023-07-09T07:11:52;101837.16;;;23.52;58.82
62725;BME280;49026;52.600;4.694;2023-07-09T07:14:18;101828.75;;;23.67;59.34
62725;BME280;49026;52.600;4.694;2023-07-09T07:16:43;101838.16;;;23.84;59.08
62725;BME280;49026;52.600;4.694;2023-07-09T07:19:08;101845.19;;;23.97;59.30
62725;BME280;49026;52.600;4.694;2023-07-09T07:21:39;101847.50;;;24.13;59.33
62725;BME280;49026;52.600;4.694;2023-07-09T07:24:04;101847.19;;;24.27;59.36
62725;BME280;49026;52.600;4.694;2023-07-09T07:26:32;101840.28;;;24.46;59.45
62725;BME280;49026;52.600;4.694;2023-07-09T07:28:57;101837.81;;;24.65;59.23
62725;BME280;49026;52.600;4.694;2023-07-09T07:31:22;101839.59;;;24.76;59.16
62725;BME280;49026;52.600;4.694;2023-07-09T07:33:48;101834.59;;;24.92;59.62
62725;BME280;49026;52.600;4.694;2023-07-09T07:36:15;101836.22;;;25.26;59.54
62725;BME280;49026;52.600;4.694;2023-07-09T07:38:43;101841.72;;;25.45;59.29
62725;BME280;49026;52.600;4.694;2023-07-09T07:41:10;101843.34;;;25.58;59.19
62725;BME280;49026;52.600;4.694;2023-07-09T07:43:36;101828.50;;;25.63;59.24
62725;BME280;49026;52.600;4.694;2023-07-09T07:46:03;101840.13;;;25.74;59.23
62725;BME280;49026;52.600;4.694;2023-07-09T07:48:29;101838.47;;;25.82;59.16
62725;BME280;49026;52.600;4.694;2023-07-09T07:51:04;101827.50;;;26.05;59.19
62725;BME280;49026;52.600;4.694;2023-07-09T07:53:30;101833.63;;;26.27;59.18
62725;BME280;49026;52.600;4.694;2023-07-09T07:55:56;101839.72;;;26.38;58.77
62725;BME280;49026;52.600;4.694;2023-07-09T07:58:22;101848.38;;;26.52;59.21
62725;BME280;49026;52.600;4.694;2023-07-09T08:00:48;101853.34;;;26.76;59.13
62725;BME280;49026;52.600;4.694;2023-07-09T08:03:13;101855.06;;;26.77;58.56
62725;BME280;49026;52.600;4.694;2023-07-09T08:05:39;101854.66;;;26.82;58.32
62725;BME280;49026;52.600;4.694;2023-07-09T08:08:04;101853.34;;;26.95;58.54
62725;BME280;49026;52.600;4.694;2023-07-09T08:10:32;101855.25;;;27.23;58.26
62725;BME280;49026;52.600;4.694;2023-07-09T08:12:57;101859.31;;;27.46;58.45
62725;BME280;49026;52.600;4.694;2023-07-09T08:15:24;101850.91;;;27.59;57.10
62725;BME280;49026;52.600;4.694;2023-07-09T08:17:51;101848.13;;;27.41;55.51
62725;BME280;49026;52.600;4.694;2023-07-09T08:20:19;101844.47;;;27.23;56.70
62725;BME280;49026;52.600;4.694;2023-07-09T08:22:44;101837.00;;;27.07;55.51
62725;BME280;49026;52.600;4.694;2023-07-09T08:25:11;101836.75;;;26.80;54.89
62725;BME280;49026;52.600;4.694;2023-07-09T08:27:37;101829.84;;;26.68;56.23
62725;BME280;49026;52.600;4.694;2023-07-09T08:30:05;101819.06;;;26.68;55.99
62725;BME280;49026;52.600;4.694;2023-07-09T08:32:30;101815.63;;;26.76;56.33
62725;BME280;49026;52.600;4.694;2023-07-09T08:34:58;101814.47;;;26.88;56.29
62725;BME280;49026;52.600;4.694;2023-07-09T08:37:23;101818.13;;;26.97;55.58
62725;BME280;49026;52.600;4.694;2023-07-09T08:39:49;101812.22;;;26.84;55.45
62725;BME280;49026;52.600;4.694;2023-07-09T08:42:21;101806.06;;;27.01;56.47
62725;BME280;49026;52.600;4.694;2023-07-09T08:48:17;101807.56;;;27.61;54.01
62725;BME280;49026;52.600;4.694;2023-07-09T08:50:50;101796.03;;;27.68;54.66
62725;BME280;49026;52.600;4.694;2023-07-09T08:53:28;101806.97;;;27.85;54.19
62725;BME280;49026;52.600;4.694;2023-07-09T08:55:56;101810.69;;;27.94;53.60
62725;BME280;49026;52.600;4.694;2023-07-09T08:58:25;101809.53;;;28.14;53.61
62725;BME280;49026;52.600;4.694;2023-07-09T09:00:57;101814.56;;;28.27;54.23
62725;BME280;49026;52.600;4.694;2023-07-09T09:05:56;101823.47;;;28.81;54.46
62725;BME280;49026;52.600;4.694;2023-07-09T09:08:46;101831.81;;;29.14;54.37
62725;BME280;49026;52.600;4.694;2023-07-09T09:14:07;101832.03;;;29.47;53.39
62725;BME280;49026;52.600;4.694;2023-07-09T09:16:39;101834.63;;;29.65;53.59
62725;BME280;49026;52.600;4.694;2023-07-09T09:19:18;101829.66;;;29.95;54.06
62725;BME280;49026;52.600;4.694;2023-07-09T09:21:45;101833.78;;;30.07;53.50
62725;BME280;49026;52.600;4.694;2023-07-09T09:24:17;101844.09;;;29.96;53.17
62725;BME280;49026;52.600;4.694;2023-07-09T09:26:46;101850.69;;;29.67;52.74
62725;BME280;49026;52.600;4.694;2023-07-09T09:29:17;101850.34;;;29.62;53.57
62725;BME280;49026;52.600;4.694;2023-07-09T09:31:45;101848.09;;;29.83;53.38
62725;BME280;49026;52.600;4.694;2023-07-09T09:34:40;101836.50;;;30.32;53.96
62725;BME280;49026;52.600;4.694;2023-07-09T09:37:10;101848.75;;;30.44;52.20
62725;BME280;49026;52.600;4.694;2023-07-09T09:39:38;101838.91;;;30.43;52.21
62725;BME280;49026;52.600;4.694;2023-07-09T09:42:10;101840.75;;;30.35;50.13
62725;BME280;49026;52.600;4.694;2023-07-09T09:44:36;101844.06;;;29.87;50.80
62725;BME280;49026;52.600;4.694;2023-07-09T09:47:09;101844.59;;;29.65;51.65
62725;BME280;49026;52.600;4.694;2023-07-09T09:49:42;101840.38;;;29.62;50.82
62725;BME280;49026;52.600;4.694;2023-07-09T09:52:18;101855.47;;;29.73;51.18
62725;BME280;49026;52.600;4.694;2023-07-09T09:54:50;101871.22;;;29.69;50.26
62725;BME280;49026;52.600;4.694;2023-07-09T09:57:22;101877.94;;;29.57;48.98
62725;BME280;49026;52.600;4.694;2023-07-09T09:59:47;101879.69;;;29.40;50.42
62725;BME280;49026;52.600;4.694;2023-07-09T10:02:25;101879.47;;;29.60;49.43
62725;BME280;49026;52.600;4.694;2023-07-09T10:04:51;101872.69;;;29.55;49.55
62725;BME280;49026;52.600;4.694;2023-07-09T10:07:34;101881.97;;;29.53;50.71
62725;BME280;49026;52.600;4.694;2023-07-09T10:10:02;101882.31;;;29.58;50.57
62725;BME280;49026;52.600;4.694;2023-07-09T10:15:34;101867.41;;;29.88;49.30
62725;BME280;49026;52.600;4.694;2023-07-09T10:18:32;101865.41;;;29.56;49.87
62725;BME280;49026;52.600;4.694;2023-07-09T10:21:15;101857.03;;;29.41;49.90
62725;BME280;49026;52.600;4.694;2023-07-09T10:23:56;101861.44;;;29.42;49.53
62725;BME280;49026;52.600;4.694;2023-07-09T10:26:51;101845.19;;;29.42;47.52
62725;BME280;49026;52.600;4.694;2023-07-09T10:34:47;101818.75;;;30.38;48.71
62725;BME280;49026;52.600;4.694;2023-07-09T10:40:10;101807.22;;;30.27;49.36
62725;BME280;49026;52.600;4.694;2023-07-09T10:42:47;101818.06;;;30.60;48.68
62725;BME280;49026;52.600;4.694;2023-07-09T10:45:16;101823.66;;;30.67;48.39
62725;BME280;49026;52.600;4.694;2023-07-09T10:47:51;101831.47;;;30.62;48.58
62725;BME280;49026;52.600;4.694;2023-07-09T10:50:39;101826.91;;;30.46;47.68
62725;BME280;49026;52.600;4.694;2023-07-09T10:56:05;101836.22;;;30.76;47.76
62725;BME280;49026;52.600;4.694;2023-07-09T10:58:44;101817.38;;;30.99;47.25
62725;BME280;49026;52.600;4.694;2023-07-09T11:01:13;101824.84;;;30.73;46.80
62725;BME280;49026;52.600;4.694;2023-07-09T11:03:48;101828.59;;;30.47;46.29
62725;BME280;49026;52.600;4.694;2023-07-09T11:06:36;101824.50;;;30.35;46.45
62725;BME280;49026;52.600;4.694;2023-07-09T11:09:04;101828.19;;;30.25;46.46
62725;BME280;49026;52.600;4.694;2023-07-09T11:11:37;101833.16;;;30.46;47.63
62725;BME280;49026;52.600;4.694;2023-07-09T11:14:16;101827.53;;;31.06;47.10
62725;BME280;49026;52.600;4.694;2023-07-09T11:16:46;101826.72;;;31.61;46.87
62725;BME280;49026;52.600;4.694;2023-07-09T11:19:17;101827.22;;;31.65;45.97
62725;BME280;49026;52.600;4.694;2023-07-09T11:22:05;101833.00;;;31.62;46.27
62725;BME280;49026;52.600;4.694;2023-07-09T11:24:35;101835.91;;;31.44;46.85
62725;BME280;49026;52.600;4.694;2023-07-09T11:27:01;101845.16;;;31.18;46.77
62725;BME280;49026;52.600;4.694;2023-07-09T11:29:27;101857.06;;;30.84;47.02
62725;BME280;49026;52.600;4.694;2023-07-09T11:31:54;101855.03;;;30.70;47.11
62725;BME280;49026;52.600;4.694;2023-07-09T11:34:27;101865.56;;;30.81;47.05
62725;BME280;49026;52.600;4.694;2023-07-09T11:39:41;101869.28;;;30.88;47.26
62725;BME280;49026;52.600;4.694;2023-07-09T11:42:24;101865.06;;;30.69;45.90
62725;BME280;49026;52.600;4.694;2023-07-09T11:44:56;101853.69;;;30.41;46.58
62725;BME280;49026;52.600;4.694;2023-07-09T11:47:27;101871.19;;;30.12;46.49
62725;BME280;49026;52.600;4.694;2023-07-09T11:50:12;101886.06;;;29.57;46.79
62725;BME280;49026;52.600;4.694;2023-07-09T11:52:52;101885.03;;;29.24;47.71
62725;BME280;49026;52.600;4.694;2023-07-09T11:55:21;101879.41;;;29.17;48.73
62725;BME280;49026;52.600;4.694;2023-07-09T11:57:59;101878.16;;;28.93;47.13
62725;BME280;49026;52.600;4.694;2023-07-09T12:00:28;101873.88;;;28.64;47.60
62725;BME280;49026;52.600;4.694;2023-07-09T12:02:57;101874.56;;;28.67;48.18
62725;BME280;49026;52.600;4.694;2023-07-09T12:05:27;101876.72;;;28.63;46.63
62725;BME280;49026;52.600;4.694;2023-07-09T12:07:54;101878.25;;;28.48;47.33
62725;BME280;49026;52.600;4.694;2023-07-09T12:10:24;101891.88;;;28.56;47.86
62725;BME280;49026;52.600;4.694;2023-07-09T12:12:58;101907.44;;;28.98;47.77
62725;BME280;49026;52.600;4.694;2023-07-09T12:15:27;101915.31;;;29.09;46.98
62725;BME280;49026;52.600;4.694;2023-07-09T12:18:10;101927.97;;;29.27;47.64
62725;BME280;49026;52.600;4.694;2023-07-09T12:20:36;101943.72;;;29.49;46.48
62725;BME280;49026;52.600;4.694;2023-07-09T12:23:18;101956.03;;;29.44;46.74
62725;BME280;49026;52.600;4.694;2023-07-09T12:25:50;101967.69;;;29.18;45.98
62725;BME280;49026;52.600;4.694;2023-07-09T12:28:20;101984.91;;;28.35;46.33
62725;BME280;49026;52.600;4.694;2023-07-09T12:30:51;101981.66;;;27.37;47.71
62725;BME280;49026;52.600;4.694;2023-07-09T12:33:25;102014.47;;;26.53;48.97
62725;BME280;49026;52.600;4.694;2023-07-09T12:35:59;102005.94;;;25.76;50.08
62725;BME280;49026;52.600;4.694;2023-07-09T12:38:29;102001.06;;;25.28;50.75
62725;BME280;49026;52.600;4.694;2023-07-09T12:41:00;101985.78;;;24.96;51.14
62725;BME280;49026;52.600;4.694;2023-07-09T12:43:28;101991.22;;;24.73;52.02
62725;BME280;49026;52.600;4.694;2023-07-09T12:45:56;102002.00;;;24.51;52.87
62725;BME280;49026;52.600;4.694;2023-07-09T12:48:24;102020.44;;;24.21;54.01
62725;BME280;49026;52.600;4.694;2023-07-09T12:50:55;101997.13;;;23.99;54.75
62725;BME280;49026;52.600;4.694;2023-07-09T12:53:20;101993.66;;;23.75;55.07
62725;BME280;49026;52.600;4.694;2023-07-09T12:55:49;102016.31;;;23.59;55.85
62725;BME280;49026;52.600;4.694;2023-07-09T12:58:31;102022.81;;;23.33;56.20
62725;BME280;49026;52.600;4.694;2023-07-09T13:01:00;102032.13;;;23.16;56.33
62725;BME280;49026;52.600;4.694;2023-07-09T13:03:34;102035.09;;;22.87;57.26
62725;BME280;49026;52.600;4.694;2023-07-09T13:06:06;102027.03;;;22.63;57.47
62725;BME280;49026;52.600;4.694;2023-07-09T13:08:55;102013.72;;;22.37;57.59
62725;BME280;49026;52.600;4.694;2023-07-09T13:11:23;101999.91;;;22.17;56.95
62725;BME280;49026;52.600;4.694;2023-07-09T13:13:59;101983.41;;;21.98;57.01
62725;BME280;49026;52.600;4.694;2023-07-09T13:16:26;101959.00;;;21.90;56.65
62725;BME280;49026;52.600;4.694;2023-07-09T13:18:52;101933.13;;;21.77;57.48
62725;BME280;49026;52.600;4.694;2023-07-09T13:21:18;101906.38;;;21.52;57.96
62725;BME280;49026;52.600;4.694;2023-07-09T13:23:47;101910.53;;;21.43;57.29
62725;BME280;49026;52.600;4.694;2023-07-09T13:26:13;101925.81;;;21.41;58.41